sensor_id;sensor_type;location;lat;lon;timestamp;temperature;humidity
17565;DHT22;62994;52.126;5.596;2022-11-14T00:01:41;7.40;99.90
17565;DHT22;62994;52.126;5.596;2022-11-14T00:04:23;7.30;99.90
17565;DHT22;62994;52.126;5.596;2022-11-14T00:06:50;7.30;99.90
17565;DHT22;62994;52.126;5.596;2022-11-14T00:09:19;7.30;99.90
17565;DHT22;62994;52.126;5.596;2022-11-14T00:11:47;7.20;99.90
17565;DHT22;62994;52.126;5.596;2022-11-14T00:14:15;7.20;99.90
17565;DHT22;62994;52.126;5.596;2022-11-14T00:16:44;7.20;99.90
17565;DHT22;62994;52.126;5.596;2022-11-14T00:19:16;7.20;99.90
17565;DHT22;62994;52.126;5.596;2022-11-14T00:21:44;7.20;99.90
17565;DHT22;62994;52.126;5.596;2022-11-14T00:24:16;7.20;99.90
17565;DHT22;62994;52.126;5.596;2022-11-14T00:26:48;7.20;99.90
17565;DHT22;62994;52.126;5.596;2022-11-14T00:29:16;7.20;99.90
17565;DHT22;62994;52.126;5.596;2022-11-14T00:31:45;7.10;99.90
17565;DHT22;62994;52.126;5.596;2022-11-14T00:34:17;7.10;99.90
17565;DHT22;62994;52.126;5.596;2022-11-14T00:36:44;7.00;99.90
17565;DHT22;62994;52.126;5.596;2022-11-14T00:39:13;7.10;99.90
17565;DHT22;62994;52.126;5.596;2022-11-14T00:41:42;7.00;99.90
17565;DHT22;62994;52.126;5.596;2022-11-14T00:44:09;7.10;99.90
17565;DHT22;62994;52.126;5.596;2022-11-14T00:46:41;7.00;99.90
17565;DHT22;62994;52.126;5.596;2022-11-14T00:49:09;7.10;99.90
17565;DHT22;62994;52.126;5.596;2022-11-14T00:51:37;7.10;99.90
17565;DHT22;62994;52.126;5.596;2022-11-14T00:54:06;7.10;99.90
17565;DHT22;62994;52.126;5.596;2022-11-14T00:56:47;7.10;99.90
17565;DHT22;62994;52.126;5.596;2022-11-14T00:59:14;6.90;99.90
17565;DHT22;62994;52.126;5.596;2022-11-14T01:01:43;7.00;99.90
17565;DHT22;62994;52.126;5.596;2022-11-14T01:04:11;7.00;99.90
17565;DHT22;62994;52.126;5.596;2022-11-14T01:06:38;7.00;99.90
17565;DHT22;62994;52.126;5.596;2022-11-14T01:09:16;7.00;99.90
17565;DHT22;62994;52.126;5.596;2022-11-14T01:11:44;7.00;99.90
17565;DHT22;62994;52.126;5.596;2022-11-14T01:14:11;7.00;99.90
17565;DHT22;62994;52.126;5.596;2022-11-14T01:16:38;7.00;99.90
17565;DHT22;62994;52.126;5.596;2022-11-14T01:19:07;7.00;99.90
17565;DHT22;62994;52.126;5.596;2022-11-14T01:21:35;7.00;99.90
17565;DHT22;62994;52.126;5.596;2022-11-14T01:24:10;7.00;99.90
17565;DHT22;62994;52.126;5.596;2022-11-14T01:26:40;7.00;99.90
17565;DHT22;62994;52.126;5.596;2022-11-14T01:29:11;7.00;99.90
17565;DHT22;62994;52.126;5.596;2022-11-14T01:31:39;6.90;99.90
17565;DHT22;62994;52.126;5.596;2022-11-14T01:34:08;6.90;99.90
17565;DHT22;62994;52.126;5.596;2022-11-14T01:36:35;6.90;99.90
17565;DHT22;62994;52.126;5.596;2022-11-14T01:39:02;6.90;99.90
17565;DHT22;62994;52.126;5.596;2022-11-14T01:41:29;6.80;99.90
17565;DHT22;62994;52.126;5.596;2022-11-14T01:43:56;6.80;99.90
17565;DHT22;62994;52.126;5.596;2022-11-14T01:46:27;6.70;99.90
17565;DHT22;62994;52.126;5.596;2022-11-14T01:48:59;6.70;99.90
17565;DHT22;62994;52.126;5.596;2022-11-14T01:51:34;6.70;99.90
17565;DHT22;62994;52.126;5.596;2022-11-14T01:54:11;6.60;99.90
17565;DHT22;62994;52.126;5.596;2022-11-14T01:56:43;6.60;99.90
17565;DHT22;62994;52.126;5.596;2022-11-14T01:59:14;6.50;99.90
17565;DHT22;62994;52.126;5.596;2022-11-14T02:01:46;6.40;99.90
17565;DHT22;62994;52.126;5.596;2022-11-14T02:04:18;6.40;99.90
17565;DHT22;62994;52.126;5.596;2022-11-14T02:06:54;6.40;99.90
17565;DHT22;62994;52.126;5.596;2022-11-14T02:09:22;6.40;99.90
17565;DHT22;62994;52.126;5.596;2022-11-14T02:11:55;6.40;99.90
17565;DHT22;62994;52.126;5.596;2022-11-14T02:14:23;6.40;99.90
17565;DHT22;62994;52.126;5.596;2022-11-14T02:16:51;6.30;99.90
17565;DHT22;62994;52.126;5.596;2022-11-14T02:19:18;6.40;99.90
17565;DHT22;62994;52.126;5.596;2022-11-14T02:21:46;6.40;99.90
17565;DHT22;62994;52.126;5.596;2022-11-14T02:24:17;6.40;99.90
17565;DHT22;62994;52.126;5.596;2022-11-14T02:26:44;6.40;99.90
17565;DHT22;62994;52.126;5.596;2022-11-14T02:29:11;6.30;99.90
17565;DHT22;62994;52.126;5.596;2022-11-14T02:31:40;6.30;99.90
17565;DHT22;62994;52.126;5.596;2022-11-14T02:34:07;6.30;99.90
17565;DHT22;62994;52.126;5.596;2022-11-14T02:36:34;6.30;99.90
17565;DHT22;62994;52.126;5.596;2022-11-14T02:39:02;6.30;99.90
17565;DHT22;62994;52.126;5.596;2022-11-14T02:41:29;6.30;99.90
17565;DHT22;62994;52.126;5.596;2022-11-14T02:44:00;6.30;99.90
17565;DHT22;62994;52.126;5.596;2022-11-14T02:46:29;6.30;99.90
17565;DHT22;62994;52.126;5.596;2022-11-14T02:48:56;6.30;99.90
17565;DHT22;62994;52.126;5.596;2022-11-14T02:51:23;6.30;99.90
17565;DHT22;62994;52.126;5.596;2022-11-14T02:53:53;6.40;99.90
17565;DHT22;62994;52.126;5.596;2022-11-14T02:56:22;6.40;99.90
17565;DHT22;62994;52.126;5.596;2022-11-14T02:58:49;6.40;99.90
17565;DHT22;62994;52.126;5.596;2022-11-14T03:01:19;6.40;99.90
17565;DHT22;62994;52.126;5.596;2022-11-14T03:03:46;6.50;99.90
17565;DHT22;62994;52.126;5.596;2022-11-14T03:06:13;6.40;99.90
17565;DHT22;62994;52.126;5.596;2022-11-14T03:08:42;6.40;99.90
17565;DHT22;62994;52.126;5.596;2022-11-14T03:11:10;6.40;99.90
17565;DHT22;62994;52.126;5.596;2022-11-14T03:13:38;6.40;99.90
17565;DHT22;62994;52.126;5.596;2022-11-14T03:16:19;6.40;99.90
17565;DHT22;62994;52.126;5.596;2022-11-14T03:18:46;6.40;99.90
17565;DHT22;62994;52.126;5.596;2022-11-14T03:21:17;6.40;99.90
17565;DHT22;62994;52.126;5.596;2022-11-14T03:23:49;6.50;99.90
17565;DHT22;62994;52.126;5.596;2022-11-14T03:26:16;6.40;99.90
17565;DHT22;62994;52.126;5.596;2022-11-14T03:28:44;6.40;99.90
17565;DHT22;62994;52.126;5.596;2022-11-14T03:31:12;6.40;99.90
17565;DHT22;62994;52.126;5.596;2022-11-14T03:33:39;6.30;99.90
17565;DHT22;62994;52.126;5.596;2022-11-14T03:36:14;6.30;99.90
17565;DHT22;62994;52.126;5.596;2022-11-14T03:38:42;6.20;99.90
17565;DHT22;62994;52.126;5.596;2022-11-14T03:41:09;6.10;99.90
17565;DHT22;62994;52.126;5.596;2022-11-14T03:43:38;6.10;99.90
17565;DHT22;62994;52.126;5.596;2022-11-14T03:46:06;6.00;99.90
17565;DHT22;62994;52.126;5.596;2022-11-14T03:48:33;6.00;99.90
17565;DHT22;62994;52.126;5.596;2022-11-14T03:51:05;5.90;99.90
17565;DHT22;62994;52.126;5.596;2022-11-14T03:53:32;5.80;99.90
17565;DHT22;62994;52.126;5.596;2022-11-14T03:56:03;5.80;99.90
17565;DHT22;62994;52.126;5.596;2022-11-14T03:58:36;5.80;99.90
17565;DHT22;62994;52.126;5.596;2022-11-14T04:01:06;5.70;99.90
17565;DHT22;62994;52.126;5.596;2022-11-14T04:03:33;5.70;99.90
17565;DHT22;62994;52.126;5.596;2022-11-14T04:06:00;5.70;99.90
17565;DHT22;62994;52.126;5.596;2022-11-14T04:08:32;5.70;99.90
17565;DHT22;62994;52.126;5.596;2022-11-14T04:11:00;5.70;99.90
17565;DHT22;62994;52.126;5.596;2022-11-14T04:13:27;5.70;99.90
17565;DHT22;62994;52.126;5.596;2022-11-14T04:15:59;5.70;99.90
17565;DHT22;62994;52.126;5.596;2022-11-14T04:18:31;5.70;99.90
17565;DHT22;62994;52.126;5.596;2022-11-14T04:20:58;5.70;99.90
17565;DHT22;62994;52.126;5.596;2022-11-14T04:23:25;5.70;99.90
17565;DHT22;62994;52.126;5.596;2022-11-14T04:25:52;5.70;99.90
17565;DHT22;62994;52.126;5.596;2022-11-14T04:28:27;5.70;99.90
17565;DHT22;62994;52.126;5.596;2022-11-14T04:31:00;5.60;99.90
17565;DHT22;62994;52.126;5.596;2022-11-14T04:33:32;5.60;99.90
17565;DHT22;62994;52.126;5.596;2022-11-14T04:38:52;5.60;99.90
17565;DHT22;62994;52.126;5.596;2022-11-14T04:41:21;5.60;99.90
17565;DHT22;62994;52.126;5.596;2022-11-14T04:43:53;5.50;99.90
17565;DHT22;62994;52.126;5.596;2022-11-14T04:46:20;5.50;99.90
17565;DHT22;62994;52.126;5.596;2022-11-14T04:48:48;5.50;99.90
17565;DHT22;62994;52.126;5.596;2022-11-14T04:51:15;5.50;99.90
17565;DHT22;62994;52.126;5.596;2022-11-14T04:53:42;5.50;99.90
17565;DHT22;62994;52.126;5.596;2022-11-14T04:56:13;5.50;99.90
17565;DHT22;62994;52.126;5.596;2022-11-14T04:58:40;5.50;99.90
17565;DHT22;62994;52.126;5.596;2022-11-14T05:01:07;5.50;99.90
17565;DHT22;62994;52.126;5.596;2022-11-14T05:03:34;5.40;99.90
17565;DHT22;62994;52.126;5.596;2022-11-14T05:06:03;5.50;99.90
17565;DHT22;62994;52.126;5.596;2022-11-14T05:08:30;5.50;99.90
17565;DHT22;62994;52.126;5.596;2022-11-14T05:10:58;5.50;99.90
17565;DHT22;62994;52.126;5.596;2022-11-14T05:13:25;5.50;99.90
17565;DHT22;62994;52.126;5.596;2022-11-14T05:15:57;5.50;99.90
17565;DHT22;62994;52.126;5.596;2022-11-14T05:18:24;5.40;99.90
17565;DHT22;62994;52.126;5.596;2022-11-14T05:21:03;5.40;99.90
17565;DHT22;62994;52.126;5.596;2022-11-14T05:23:32;5.30;99.90
17565;DHT22;62994;52.126;5.596;2022-11-14T05:26:07;5.30;99.90
17565;DHT22;62994;52.126;5.596;2022-11-14T05:28:34;5.20;99.90
17565;DHT22;62994;52.126;5.596;2022-11-14T05:31:04;5.30;99.90
17565;DHT22;62994;52.126;5.596;2022-11-14T05:33:32;5.30;99.90
17565;DHT22;62994;52.126;5.596;2022-11-14T05:36:12;5.30;99.90
17565;DHT22;62994;52.126;5.596;2022-11-14T05:38:40;5.30;99.90
17565;DHT22;62994;52.126;5.596;2022-11-14T05:41:09;5.40;99.90
17565;DHT22;62994;52.126;5.596;2022-11-14T05:43:38;5.40;99.90
17565;DHT22;62994;52.126;5.596;2022-11-14T05:46:08;5.40;99.90
17565;DHT22;62994;52.126;5.596;2022-11-14T05:48:35;5.30;99.90
17565;DHT22;62994;52.126;5.596;2022-11-14T05:51:03;5.40;99.90
17565;DHT22;62994;52.126;5.596;2022-11-14T05:53:38;5.30;99.90
17565;DHT22;62994;52.126;5.596;2022-11-14T05:56:08;5.40;99.90
17565;DHT22;62994;52.126;5.596;2022-11-14T05:58:38;5.40;99.90
17565;DHT22;62994;52.126;5.596;2022-11-14T06:01:13;5.40;99.90
17565;DHT22;62994;52.126;5.596;2022-11-14T06:03:44;5.40;99.90
17565;DHT22;62994;52.126;5.596;2022-11-14T06:06:14;5.40;99.90
17565;DHT22;62994;52.126;5.596;2022-11-14T06:08:43;5.40;99.90
17565;DHT22;62994;52.126;5.596;2022-11-14T06:11:12;5.50;99.90
17565;DHT22;62994;52.126;5.596;2022-11-14T06:13:43;5.50;99.90
17565;DHT22;62994;52.126;5.596;2022-11-14T06:16:12;5.50;99.90
17565;DHT22;62994;52.126;5.596;2022-11-14T06:18:40;5.50;99.90
17565;DHT22;62994;52.126;5.596;2022-11-14T06:21:10;5.50;99.90
17565;DHT22;62994;52.126;5.596;2022-11-14T06:23:39;5.50;99.90
17565;DHT22;62994;52.126;5.596;2022-11-14T06:26:21;5.50;99.90
17565;DHT22;62994;52.126;5.596;2022-11-14T06:28:48;5.40;99.90
17565;DHT22;62994;52.126;5.596;2022-11-14T06:31:20;5.40;99.90
17565;DHT22;62994;52.126;5.596;2022-11-14T06:33:55;5.40;99.90
17565;DHT22;62994;52.126;5.596;2022-11-14T06:36:22;5.30;99.90
17565;DHT22;62994;52.126;5.596;2022-11-14T06:38:49;5.30;99.90
17565;DHT22;62994;52.126;5.596;2022-11-14T06:41:24;5.30;99.90
17565;DHT22;62994;52.126;5.596;2022-11-14T06:43:56;5.20;99.90
17565;DHT22;62994;52.126;5.596;2022-11-14T06:46:24;5.20;99.90
17565;DHT22;62994;52.126;5.596;2022-11-14T06:48:51;5.20;99.90
17565;DHT22;62994;52.126;5.596;2022-11-14T06:51:23;5.20;99.90
17565;DHT22;62994;52.126;5.596;2022-11-14T06:53:52;5.10;99.90
17565;DHT22;62994;52.126;5.596;2022-11-14T06:56:23;5.10;99.90
17565;DHT22;62994;52.126;5.596;2022-11-14T06:58:52;5.10;99.90
17565;DHT22;62994;52.126;5.596;2022-11-14T07:01:20;5.00;99.90
17565;DHT22;62994;52.126;5.596;2022-11-14T07:03:58;5.00;99.90
17565;DHT22;62994;52.126;5.596;2022-11-14T07:06:28;5.00;99.90
17565;DHT22;62994;52.126;5.596;2022-11-14T07:08:58;4.90;99.90
17565;DHT22;62994;52.126;5.596;2022-11-14T07:11:27;4.90;99.90
17565;DHT22;62994;52.126;5.596;2022-11-14T07:14:09;4.80;99.90
17565;DHT22;62994;52.126;5.596;2022-11-14T07:16:36;4.80;99.90
17565;DHT22;62994;52.126;5.596;2022-11-14T07:19:09;4.80;99.90
17565;DHT22;62994;52.126;5.596;2022-11-14T07:21:37;4.70;99.90
17565;DHT22;62994;52.126;5.596;2022-11-14T07:24:07;4.60;99.90
17565;DHT22;62994;52.126;5.596;2022-11-14T07:26:35;4.70;99.90
17565;DHT22;62994;52.126;5.596;2022-11-14T07:29:02;4.80;99.90
17565;DHT22;62994;52.126;5.596;2022-11-14T07:31:29;4.80;99.90
17565;DHT22;62994;52.126;5.596;2022-11-14T07:33:56;4.80;99.90
17565;DHT22;62994;52.126;5.596;2022-11-14T07:36:24;4.80;99.90
17565;DHT22;62994;52.126;5.596;2022-11-14T07:38:51;4.80;99.90
17565;DHT22;62994;52.126;5.596;2022-11-14T07:41:23;4.80;99.90
17565;DHT22;62994;52.126;5.596;2022-11-14T07:44:06;4.80;99.90
17565;DHT22;62994;52.126;5.596;2022-11-14T07:46:35;4.80;99.90
17565;DHT22;62994;52.126;5.596;2022-11-14T07:49:02;4.90;99.90
17565;DHT22;62994;52.126;5.596;2022-11-14T07:51:31;4.90;99.90
17565;DHT22;62994;52.126;5.596;2022-11-14T07:54:04;4.80;99.90
17565;DHT22;62994;52.126;5.596;2022-11-14T07:56:31;4.90;99.90
17565;DHT22;62994;52.126;5.596;2022-11-14T07:58:57;4.90;99.90
17565;DHT22;62994;52.126;5.596;2022-11-14T08:01:30;5.00;99.90
17565;DHT22;62994;52.126;5.596;2022-11-14T08:03:57;5.00;99.90
17565;DHT22;62994;52.126;5.596;2022-11-14T08:06:25;5.00;99.90
17565;DHT22;62994;52.126;5.596;2022-11-14T08:08:52;5.00;99.90
17565;DHT22;62994;52.126;5.596;2022-11-14T08:11:19;5.00;99.90
17565;DHT22;62994;52.126;5.596;2022-11-14T08:14:06;5.00;99.90
17565;DHT22;62994;52.126;5.596;2022-11-14T08:16:35;5.00;99.90
17565;DHT22;62994;52.126;5.596;2022-11-14T08:19:06;5.00;99.90
17565;DHT22;62994;52.126;5.596;2022-11-14T08:21:35;5.00;99.90
17565;DHT22;62994;52.126;5.596;2022-11-14T08:24:08;5.10;99.90
17565;DHT22;62994;52.126;5.596;2022-11-14T08:26:38;5.10;99.90
17565;DHT22;62994;52.126;5.596;2022-11-14T08:29:05;5.10;99.90
17565;DHT22;62994;52.126;5.596;2022-11-14T08:31:32;5.10;99.90
17565;DHT22;62994;52.126;5.596;2022-11-14T08:34:05;5.10;99.90
17565;DHT22;62994;52.126;5.596;2022-11-14T08:36:43;5.20;99.90
17565;DHT22;62994;52.126;5.596;2022-11-14T08:39:13;5.20;99.90
17565;DHT22;62994;52.126;5.596;2022-11-14T08:41:42;5.20;99.90
17565;DHT22;62994;52.126;5.596;2022-11-14T08:44:09;5.30;99.90
17565;DHT22;62994;52.126;5.596;2022-11-14T08:46:42;5.40;99.90
17565;DHT22;62994;52.126;5.596;2022-11-14T08:49:11;5.50;99.90
17565;DHT22;62994;52.126;5.596;2022-11-14T08:51:47;5.50;99.90
17565;DHT22;62994;52.126;5.596;2022-11-14T08:54:16;5.50;99.90
17565;DHT22;62994;52.126;5.596;2022-11-14T08:56:48;5.60;99.90
17565;DHT22;62994;52.126;5.596;2022-11-14T08:59:15;5.60;99.90
17565;DHT22;62994;52.126;5.596;2022-11-14T09:01:42;5.70;99.90
17565;DHT22;62994;52.126;5.596;2022-11-14T09:04:14;5.70;99.90
17565;DHT22;62994;52.126;5.596;2022-11-14T09:06:43;5.80;99.90
17565;DHT22;62994;52.126;5.596;2022-11-14T09:09:15;5.90;99.90
17565;DHT22;62994;52.126;5.596;2022-11-14T09:11:47;5.90;99.90
17565;DHT22;62994;52.126;5.596;2022-11-14T09:14:15;6.00;99.90
17565;DHT22;62994;52.126;5.596;2022-11-14T09:16:46;6.10;99.90
17565;DHT22;62994;52.126;5.596;2022-11-14T09:19:14;6.10;99.90
17565;DHT22;62994;52.126;5.596;2022-11-14T09:21:44;6.20;99.90
17565;DHT22;62994;52.126;5.596;2022-11-14T09:24:11;6.30;99.90
17565;DHT22;62994;52.126;5.596;2022-11-14T09:26:38;6.30;99.90
17565;DHT22;62994;52.126;5.596;2022-11-14T09:29:05;6.40;99.90
17565;DHT22;62994;52.126;5.596;2022-11-14T09:31:35;6.50;99.90
17565;DHT22;62994;52.126;5.596;2022-11-14T09:34:04;6.60;99.90
17565;DHT22;62994;52.126;5.596;2022-11-14T09:36:32;6.70;99.90
17565;DHT22;62994;52.126;5.596;2022-11-14T09:39:01;6.90;99.90
17565;DHT22;62994;52.126;5.596;2022-11-14T09:41:47;7.00;99.90
17565;DHT22;62994;52.126;5.596;2022-11-14T09:44:41;7.00;99.90
17565;DHT22;62994;52.126;5.596;2022-11-14T09:47:14;7.10;99.90
17565;DHT22;62994;52.126;5.596;2022-11-14T09:49:44;7.20;99.90
17565;DHT22;62994;52.126;5.596;2022-11-14T09:52:24;7.20;99.90
17565;DHT22;62994;52.126;5.596;2022-11-14T09:54:57;7.40;99.90
17565;DHT22;62994;52.126;5.596;2022-11-14T09:57:33;7.50;99.90
17565;DHT22;62994;52.126;5.596;2022-11-14T10:00:24;7.60;99.90
17565;DHT22;62994;52.126;5.596;2022-11-14T10:03:02;7.70;99.90
17565;DHT22;62994;52.126;5.596;2022-11-14T10:05:45;7.90;99.90
17565;DHT22;62994;52.126;5.596;2022-11-14T10:08:33;7.90;99.90
17565;DHT22;62994;52.126;5.596;2022-11-14T10:11:11;8.00;99.90
17565;DHT22;62994;52.126;5.596;2022-11-14T10:13:55;8.10;99.90
17565;DHT22;62994;52.126;5.596;2022-11-14T10:16:34;8.20;99.90
17565;DHT22;62994;52.126;5.596;2022-11-14T10:19:14;8.20;99.90
17565;DHT22;62994;52.126;5.596;2022-11-14T10:22:04;8.30;99.90
17565;DHT22;62994;52.126;5.596;2022-11-14T10:25:02;8.40;99.90
17565;DHT22;62994;52.126;5.596;2022-11-14T10:27:37;8.50;99.90
17565;DHT22;62994;52.126;5.596;2022-11-14T10:30:09;8.60;99.90
17565;DHT22;62994;52.126;5.596;2022-11-14T10:32:53;8.60;99.90
17565;DHT22;62994;52.126;5.596;2022-11-14T10:35:30;8.70;99.90
17565;DHT22;62994;52.126;5.596;2022-11-14T10:38:03;8.80;99.90
17565;DHT22;62994;52.126;5.596;2022-11-14T10:40:38;8.90;99.90
17565;DHT22;62994;52.126;5.596;2022-11-14T10:43:16;9.00;99.90
17565;DHT22;62994;52.126;5.596;2022-11-14T10:45:49;9.00;99.90
17565;DHT22;62994;52.126;5.596;2022-11-14T10:48:27;9.00;99.90
17565;DHT22;62994;52.126;5.596;2022-11-14T10:50:59;9.10;99.90
17565;DHT22;62994;52.126;5.596;2022-11-14T10:53:41;9.10;99.90
17565;DHT22;62994;52.126;5.596;2022-11-14T10:56:12;9.20;99.90
17565;DHT22;62994;52.126;5.596;2022-11-14T10:58:43;9.30;99.90
17565;DHT22;62994;52.126;5.596;2022-11-14T11:01:32;9.30;99.90
17565;DHT22;62994;52.126;5.596;2022-11-14T11:04:20;9.40;99.90
17565;DHT22;62994;52.126;5.596;2022-11-14T11:06:55;9.40;99.90
17565;DHT22;62994;52.126;5.596;2022-11-14T11:09:24;9.50;99.90
17565;DHT22;62994;52.126;5.596;2022-11-14T11:12:14;9.50;99.90
17565;DHT22;62994;52.126;5.596;2022-11-14T11:14:42;9.60;99.90
17565;DHT22;62994;52.126;5.596;2022-11-14T11:17:18;9.70;99.90
17565;DHT22;62994;52.126;5.596;2022-11-14T11:19:48;9.80;99.90
17565;DHT22;62994;52.126;5.596;2022-11-14T11:22:30;9.80;99.90
17565;DHT22;62994;52.126;5.596;2022-11-14T11:25:01;9.80;99.90
17565;DHT22;62994;52.126;5.596;2022-11-14T11:27:29;9.80;99.90
17565;DHT22;62994;52.126;5.596;2022-11-14T11:30:16;9.80;99.90
17565;DHT22;62994;52.126;5.596;2022-11-14T11:32:43;9.80;99.90
17565;DHT22;62994;52.126;5.596;2022-11-14T11:35:14;9.80;99.90
17565;DHT22;62994;52.126;5.596;2022-11-14T11:37:44;9.80;99.90
17565;DHT22;62994;52.126;5.596;2022-11-14T11:40:19;9.90;99.90
17565;DHT22;62994;52.126;5.596;2022-11-14T11:42:54;9.90;99.90
17565;DHT22;62994;52.126;5.596;2022-11-14T11:45:23;9.90;99.90
17565;DHT22;62994;52.126;5.596;2022-11-14T11:47:55;9.90;99.90
17565;DHT22;62994;52.126;5.596;2022-11-14T11:50:25;9.90;99.90
17565;DHT22;62994;52.126;5.596;2022-11-14T11:53:00;10.00;99.90
17565;DHT22;62994;52.126;5.596;2022-11-14T11:55:34;10.00;99.90
17565;DHT22;62994;52.126;5.596;2022-11-14T11:58:11;10.00;99.90
17565;DHT22;62994;52.126;5.596;2022-11-14T12:00:47;10.10;99.90
17565;DHT22;62994;52.126;5.596;2022-11-14T12:03:24;10.20;99.90
17565;DHT22;62994;52.126;5.596;2022-11-14T12:05:57;10.10;99.90
17565;DHT22;62994;52.126;5.596;2022-11-14T12:08:33;10.20;99.90
17565;DHT22;62994;52.126;5.596;2022-11-14T12:11:10;10.20;99.90
17565;DHT22;62994;52.126;5.596;2022-11-14T12:14:01;10.20;99.90
17565;DHT22;62994;52.126;5.596;2022-11-14T12:16:45;10.20;99.90
17565;DHT22;62994;52.126;5.596;2022-11-14T12:19:32;10.10;99.90
17565;DHT22;62994;52.126;5.596;2022-11-14T12:22:39;10.00;99.90
17565;DHT22;62994;52.126;5.596;2022-11-14T12:25:33;10.00;99.90
17565;DHT22;62994;52.126;5.596;2022-11-14T12:28:38;10.00;99.90
17565;DHT22;62994;52.126;5.596;2022-11-14T12:31:14;10.00;99.90
17565;DHT22;62994;52.126;5.596;2022-11-14T12:33:50;10.00;99.90
17565;DHT22;62994;52.126;5.596;2022-11-14T12:36:27;10.00;99.90
17565;DHT22;62994;52.126;5.596;2022-11-14T12:38:58;9.90;99.90
17565;DHT22;62994;52.126;5.596;2022-11-14T12:41:28;9.90;99.90
17565;DHT22;62994;52.126;5.596;2022-11-14T12:44:15;9.90;99.90
17565;DHT22;62994;52.126;5.596;2022-11-14T12:47:13;9.90;99.90
17565;DHT22;62994;52.126;5.596;2022-11-14T12:50:00;9.90;99.90
17565;DHT22;62994;52.126;5.596;2022-11-14T12:52:45;10.00;99.90
17565;DHT22;62994;52.126;5.596;2022-11-14T12:58:29;9.90;99.90
17565;DHT22;62994;52.126;5.596;2022-11-14T13:01:09;9.70;99.90
17565;DHT22;62994;52.126;5.596;2022-11-14T13:03:52;9.50;99.90
17565;DHT22;62994;52.126;5.596;2022-11-14T13:06:38;9.50;99.90
17565;DHT22;62994;52.126;5.596;2022-11-14T13:12:27;9.50;99.90
17565;DHT22;62994;52.126;5.596;2022-11-14T13:15:23;9.40;99.90
17565;DHT22;62994;52.126;5.596;2022-11-14T13:18:25;9.40;99.90
17565;DHT22;62994;52.126;5.596;2022-11-14T13:21:21;9.40;99.90
17565;DHT22;62994;52.126;5.596;2022-11-14T13:24:13;9.60;99.90
17565;DHT22;62994;52.126;5.596;2022-11-14T13:26:54;9.50;99.90
17565;DHT22;62994;52.126;5.596;2022-11-14T13:30:06;9.50;99.90
17565;DHT22;62994;52.126;5.596;2022-11-14T13:33:00;9.50;99.90
17565;DHT22;62994;52.126;5.596;2022-11-14T13:35:50;9.60;99.90
17565;DHT22;62994;52.126;5.596;2022-11-14T13:39:04;9.60;99.90
17565;DHT22;62994;52.126;5.596;2022-11-14T13:45:10;9.60;99.90
17565;DHT22;62994;52.126;5.596;2022-11-14T13:50:42;9.50;99.90
17565;DHT22;62994;52.126;5.596;2022-11-14T13:53:16;9.50;99.90
17565;DHT22;62994;52.126;5.596;2022-11-14T13:55:55;9.60;99.90
17565;DHT22;62994;52.126;5.596;2022-11-14T13:58:55;9.60;99.90
17565;DHT22;62994;52.126;5.596;2022-11-14T14:01:39;9.50;99.90
17565;DHT22;62994;52.126;5.596;2022-11-14T14:04:35;9.50;99.90
17565;DHT22;62994;52.126;5.596;2022-11-14T14:07:10;9.50;99.90
17565;DHT22;62994;52.126;5.596;2022-11-14T14:09:49;9.50;99.90
17565;DHT22;62994;52.126;5.596;2022-11-14T14:12:40;9.50;99.90
17565;DHT22;62994;52.126;5.596;2022-11-14T14:15:20;9.50;99.90
17565;DHT22;62994;52.126;5.596;2022-11-14T14:18:17;9.40;99.90
17565;DHT22;62994;52.126;5.596;2022-11-14T14:20:55;9.40;99.90
17565;DHT22;62994;52.126;5.596;2022-11-14T14:23:34;9.30;99.90
17565;DHT22;62994;52.126;5.596;2022-11-14T14:26:14;9.30;99.90
17565;DHT22;62994;52.126;5.596;2022-11-14T14:28:49;9.20;99.90
17565;DHT22;62994;52.126;5.596;2022-11-14T14:31:32;9.30;99.90
17565;DHT22;62994;52.126;5.596;2022-11-14T14:34:04;9.30;99.90
17565;DHT22;62994;52.126;5.596;2022-11-14T14:36:49;9.30;99.90
17565;DHT22;62994;52.126;5.596;2022-11-14T14:39:19;9.30;99.90
17565;DHT22;62994;52.126;5.596;2022-11-14T14:41:50;9.30;99.90
17565;DHT22;62994;52.126;5.596;2022-11-14T14:44:33;9.20;99.90
17565;DHT22;62994;52.126;5.596;2022-11-14T14:47:25;9.20;99.90
17565;DHT22;62994;52.126;5.596;2022-11-14T14:49:56;9.30;99.90
17565;DHT22;62994;52.126;5.596;2022-11-14T14:52:28;9.30;99.90
17565;DHT22;62994;52.126;5.596;2022-11-14T14:55:03;9.20;99.90
17565;DHT22;62994;52.126;5.596;2022-11-14T14:57:39;9.20;99.90
17565;DHT22;62994;52.126;5.596;2022-11-14T15:00:19;9.30;99.90
17565;DHT22;62994;52.126;5.596;2022-11-14T15:02:48;9.20;99.90
17565;DHT22;62994;52.126;5.596;2022-11-14T15:05:25;9.20;99.90
17565;DHT22;62994;52.126;5.596;2022-11-14T15:07:57;9.20;99.90
17565;DHT22;62994;52.126;5.596;2022-11-14T15:10:26;9.10;99.90
17565;DHT22;62994;52.126;5.596;2022-11-14T15:12:55;9.00;99.90
17565;DHT22;62994;52.126;5.596;2022-11-14T15:15:24;9.10;99.90
17565;DHT22;62994;52.126;5.596;2022-11-14T15:17:55;9.10;99.90
17565;DHT22;62994;52.126;5.596;2022-11-14T15:20:28;9.00;99.90
17565;DHT22;62994;52.126;5.596;2022-11-14T15:23:15;9.00;99.90
17565;DHT22;62994;52.126;5.596;2022-11-14T15:25:46;9.00;99.90
17565;DHT22;62994;52.126;5.596;2022-11-14T15:28:19;9.00;99.90
17565;DHT22;62994;52.126;5.596;2022-11-14T15:30:57;9.00;99.90
17565;DHT22;62994;52.126;5.596;2022-11-14T15:33:28;9.00;99.90
17565;DHT22;62994;52.126;5.596;2022-11-14T15:36:10;9.00;99.90
17565;DHT22;62994;52.126;5.596;2022-11-14T15:38:39;9.00;99.90
17565;DHT22;62994;52.126;5.596;2022-11-14T15:41:32;9.10;99.90
17565;DHT22;62994;52.126;5.596;2022-11-14T15:44:02;9.10;99.90
17565;DHT22;62994;52.126;5.596;2022-11-14T15:46:40;9.20;99.90
17565;DHT22;62994;52.126;5.596;2022-11-14T15:49:18;9.20;99.90
17565;DHT22;62994;52.126;5.596;2022-11-14T15:51:59;9.20;99.90
17565;DHT22;62994;52.126;5.596;2022-11-14T15:54:28;9.30;99.90
17565;DHT22;62994;52.126;5.596;2022-11-14T15:56:59;9.20;99.90
17565;DHT22;62994;52.126;5.596;2022-11-14T15:59:30;9.30;99.90
17565;DHT22;62994;52.126;5.596;2022-11-14T16:02:05;9.30;99.90
17565;DHT22;62994;52.126;5.596;2022-11-14T16:04:37;9.30;99.90
17565;DHT22;62994;52.126;5.596;2022-11-14T16:07:08;9.30;99.90
17565;DHT22;62994;52.126;5.596;2022-11-14T16:09:44;9.30;99.90
17565;DHT22;62994;52.126;5.596;2022-11-14T16:12:12;9.40;99.90
17565;DHT22;62994;52.126;5.596;2022-11-14T16:14:44;9.30;99.90
17565;DHT22;62994;52.126;5.596;2022-11-14T16:17:22;9.30;99.90
17565;DHT22;62994;52.126;5.596;2022-11-14T16:20:02;9.30;99.90
17565;DHT22;62994;52.126;5.596;2022-11-14T16:22:31;9.30;99.90
17565;DHT22;62994;52.126;5.596;2022-11-14T16:25:08;9.30;99.90
17565;DHT22;62994;52.126;5.596;2022-11-14T16:27:37;9.30;99.90
17565;DHT22;62994;52.126;5.596;2022-11-14T16:30:04;9.30;99.90
17565;DHT22;62994;52.126;5.596;2022-11-14T16:32:36;9.30;99.90
17565;DHT22;62994;52.126;5.596;2022-11-14T16:35:08;9.30;99.90
17565;DHT22;62994;52.126;5.596;2022-11-14T16:37:43;9.30;99.90
17565;DHT22;62994;52.126;5.596;2022-11-14T16:40:13;9.30;99.90